Terminal Aerodrome Forecast
Issued by NWS San Angelo, TX

Home | Current Version | Previous Version | Text Only | Print | Product List | Glossary On
Versions: 1 2 3 4 5 6 7 8 9 10 11 12 13 14 15 16 17 18 19 20 21
000
FTUS44 KSJT 222000 AAA
TAFSJT
TAF AMD
KSJT 222057Z 2221/2318 33011KT P6SM SCT150 BKN250
     FM230000 VRB06KT P6SM BKN250
     FM230800 VRB05KT P6SM VCSH BKN080 BKN150
     FM231300 01011KT P6SM VCSH BKN020=

USA.gov is the U.S. government's official web portal to all federal, state and local government web resources and services.